sensor_id;sensor_type;location;lat;lon;timestamp;pressure;altitude;pressure_sealevel;temperature
20733;BMP180;10527;52.124;5.196;2023-12-07T00:00:17;101799.00;;;12.30
20733;BMP180;10527;52.124;5.196;2023-12-07T00:02:44;101805.00;;;12.30
20733;BMP180;10527;52.124;5.196;2023-12-07T00:05:12;101809.00;;;12.30
20733;BMP180;10527;52.124;5.196;2023-12-07T00:07:39;101799.00;;;12.30
20733;BMP180;10527;52.124;5.196;2023-12-07T00:10:07;101805.00;;;12.40
20733;BMP180;10527;52.124;5.196;2023-12-07T00:12:35;101810.00;;;12.30
20733;BMP180;10527;52.124;5.196;2023-12-07T00:15:03;101796.00;;;12.30
20733;BMP180;10527;52.124;5.196;2023-12-07T00:17:30;101803.00;;;12.40
20733;BMP180;10527;52.124;5.196;2023-12-07T00:19:57;101803.00;;;12.30
20733;BMP180;10527;52.124;5.196;2023-12-07T00:22:25;101796.00;;;12.30
20733;BMP180;10527;52.124;5.196;2023-12-07T00:24:54;101802.00;;;12.30
20733;BMP180;10527;52.124;5.196;2023-12-07T00:27:21;101776.00;;;12.30
20733;BMP180;10527;52.124;5.196;2023-12-07T00:29:49;101775.00;;;12.30
20733;BMP180;10527;52.124;5.196;2023-12-07T00:32:17;101774.00;;;12.30
20733;BMP180;10527;52.124;5.196;2023-12-07T00:34:46;101775.00;;;12.30
20733;BMP180;10527;52.124;5.196;2023-12-07T00:37:14;101775.00;;;12.30
20733;BMP180;10527;52.124;5.196;2023-12-07T00:39:43;101786.00;;;12.30
20733;BMP180;10527;52.124;5.196;2023-12-07T00:42:10;101781.00;;;12.30
20733;BMP180;10527;52.124;5.196;2023-12-07T00:44:41;101774.00;;;12.30
20733;BMP180;10527;52.124;5.196;2023-12-07T00:47:10;101785.00;;;12.30
20733;BMP180;10527;52.124;5.196;2023-12-07T00:49:39;101782.00;;;12.30
20733;BMP180;10527;52.124;5.196;2023-12-07T00:52:10;101788.00;;;12.20
20733;BMP180;10527;52.124;5.196;2023-12-07T00:54:38;101784.00;;;12.20
20733;BMP180;10527;52.124;5.196;2023-12-07T00:57:05;101785.00;;;12.20
20733;BMP180;10527;52.124;5.196;2023-12-07T00:59:33;101790.00;;;12.20
20733;BMP180;10527;52.124;5.196;2023-12-07T01:02:04;101791.00;;;12.20
20733;BMP180;10527;52.124;5.196;2023-12-07T01:04:35;101797.00;;;12.10
20733;BMP180;10527;52.124;5.196;2023-12-07T01:07:04;101794.00;;;12.10
20733;BMP180;10527;52.124;5.196;2023-12-07T01:09:33;101799.00;;;12.10
20733;BMP180;10527;52.124;5.196;2023-12-07T01:12:01;101798.00;;;12.10
20733;BMP180;10527;52.124;5.196;2023-12-07T01:14:29;101793.00;;;12.10
20733;BMP180;10527;52.124;5.196;2023-12-07T01:16:56;101795.00;;;12.10
20733;BMP180;10527;52.124;5.196;2023-12-07T01:19:24;101794.00;;;12.10
20733;BMP180;10527;52.124;5.196;2023-12-07T01:21:52;101805.00;;;12.10
20733;BMP180;10527;52.124;5.196;2023-12-07T01:24:20;101793.00;;;12.10
20733;BMP180;10527;52.124;5.196;2023-12-07T01:26:47;101794.00;;;12.00
20733;BMP180;10527;52.124;5.196;2023-12-07T01:29:14;101797.00;;;12.10
20733;BMP180;10527;52.124;5.196;2023-12-07T01:32:09;101800.00;;;12.10
20733;BMP180;10527;52.124;5.196;2023-12-07T01:34:37;101810.00;;;12.00
20733;BMP180;10527;52.124;5.196;2023-12-07T01:37:04;101804.00;;;12.00
20733;BMP180;10527;52.124;5.196;2023-12-07T01:39:32;101795.00;;;11.90
20733;BMP180;10527;52.124;5.196;2023-12-07T01:42:00;101807.00;;;11.90
20733;BMP180;10527;52.124;5.196;2023-12-07T01:44:27;101813.00;;;11.90
20733;BMP180;10527;52.124;5.196;2023-12-07T01:46:56;101809.00;;;11.90
20733;BMP180;10527;52.124;5.196;2023-12-07T01:49:23;101799.00;;;11.90
20733;BMP180;10527;52.124;5.196;2023-12-07T01:51:51;101799.00;;;11.80
20733;BMP180;10527;52.124;5.196;2023-12-07T01:54:18;101813.00;;;11.80
20733;BMP180;10527;52.124;5.196;2023-12-07T01:56:46;101808.00;;;11.80
20733;BMP180;10527;52.124;5.196;2023-12-07T01:59:15;101809.00;;;11.80
20733;BMP180;10527;52.124;5.196;2023-12-07T02:01:43;101806.00;;;11.80
20733;BMP180;10527;52.124;5.196;2023-12-07T02:04:11;101803.00;;;11.80
20733;BMP180;10527;52.124;5.196;2023-12-07T02:06:39;101799.00;;;11.80
20733;BMP180;10527;52.124;5.196;2023-12-07T02:09:07;101801.00;;;11.80
20733;BMP180;10527;52.124;5.196;2023-12-07T02:11:36;101811.00;;;11.80
20733;BMP180;10527;52.124;5.196;2023-12-07T02:14:03;101809.00;;;11.80
20733;BMP180;10527;52.124;5.196;2023-12-07T02:16:39;101811.00;;;11.80
20733;BMP180;10527;52.124;5.196;2023-12-07T02:21:57;101805.00;;;11.80
20733;BMP180;10527;52.124;5.196;2023-12-07T02:24:27;101807.00;;;11.80
20733;BMP180;10527;52.124;5.196;2023-12-07T02:26:56;101812.00;;;11.80
20733;BMP180;10527;52.124;5.196;2023-12-07T02:29:23;101806.00;;;11.80
20733;BMP180;10527;52.124;5.196;2023-12-07T02:31:51;101807.00;;;11.80
20733;BMP180;10527;52.124;5.196;2023-12-07T02:34:19;101798.00;;;11.80
20733;BMP180;10527;52.124;5.196;2023-12-07T02:36:47;101802.00;;;11.80
20733;BMP180;10527;52.124;5.196;2023-12-07T02:39:16;101795.00;;;11.80
20733;BMP180;10527;52.124;5.196;2023-12-07T02:41:43;101783.00;;;11.80
20733;BMP180;10527;52.124;5.196;2023-12-07T02:44:12;101784.00;;;11.80
20733;BMP180;10527;52.124;5.196;2023-12-07T02:46:40;101786.00;;;11.80
20733;BMP180;10527;52.124;5.196;2023-12-07T02:49:07;101789.00;;;11.80
20733;BMP180;10527;52.124;5.196;2023-12-07T02:51:35;101793.00;;;11.80
20733;BMP180;10527;52.124;5.196;2023-12-07T02:54:02;101795.00;;;11.80
20733;BMP180;10527;52.124;5.196;2023-12-07T02:56:30;101802.00;;;11.80
20733;BMP180;10527;52.124;5.196;2023-12-07T02:58:58;101796.00;;;11.80
20733;BMP180;10527;52.124;5.196;2023-12-07T03:01:25;101800.00;;;11.80
20733;BMP180;10527;52.124;5.196;2023-12-07T03:03:53;101788.00;;;11.80
20733;BMP180;10527;52.124;5.196;2023-12-07T03:06:21;101801.00;;;11.80
20733;BMP180;10527;52.124;5.196;2023-12-07T03:08:48;101799.00;;;11.80
20733;BMP180;10527;52.124;5.196;2023-12-07T03:11:16;101801.00;;;11.70
20733;BMP180;10527;52.124;5.196;2023-12-07T03:13:43;101796.00;;;11.80
20733;BMP180;10527;52.124;5.196;2023-12-07T03:16:11;101800.00;;;11.70
20733;BMP180;10527;52.124;5.196;2023-12-07T03:18:38;101800.00;;;11.80
20733;BMP180;10527;52.124;5.196;2023-12-07T03:21:06;101796.00;;;11.70
20733;BMP180;10527;52.124;5.196;2023-12-07T03:23:39;101805.00;;;11.70
20733;BMP180;10527;52.124;5.196;2023-12-07T03:26:06;101807.00;;;11.70
20733;BMP180;10527;52.124;5.196;2023-12-07T03:28:34;101808.00;;;11.70
20733;BMP180;10527;52.124;5.196;2023-12-07T03:31:01;101814.00;;;11.70
20733;BMP180;10527;52.124;5.196;2023-12-07T03:33:29;101818.00;;;11.70
20733;BMP180;10527;52.124;5.196;2023-12-07T03:35:56;101818.00;;;11.70
20733;BMP180;10527;52.124;5.196;2023-12-07T03:38:24;101819.00;;;11.70
20733;BMP180;10527;52.124;5.196;2023-12-07T03:40:51;101814.00;;;11.60
20733;BMP180;10527;52.124;5.196;2023-12-07T03:43:19;101818.00;;;11.60
20733;BMP180;10527;52.124;5.196;2023-12-07T03:45:48;101822.00;;;11.60
20733;BMP180;10527;52.124;5.196;2023-12-07T03:48:15;101815.00;;;11.60
20733;BMP180;10527;52.124;5.196;2023-12-07T03:50:43;101821.00;;;11.60
20733;BMP180;10527;52.124;5.196;2023-12-07T03:53:10;101813.00;;;11.60
20733;BMP180;10527;52.124;5.196;2023-12-07T03:55:38;101819.00;;;11.60
20733;BMP180;10527;52.124;5.196;2023-12-07T03:58:08;101823.00;;;11.60
20733;BMP180;10527;52.124;5.196;2023-12-07T04:00:36;101808.00;;;11.60
20733;BMP180;10527;52.124;5.196;2023-12-07T04:03:04;101813.00;;;11.60
20733;BMP180;10527;52.124;5.196;2023-12-07T04:05:32;101813.00;;;11.60
20733;BMP180;10527;52.124;5.196;2023-12-07T04:08:01;101808.00;;;11.60
20733;BMP180;10527;52.124;5.196;2023-12-07T04:10:29;101812.00;;;11.60
20733;BMP180;10527;52.124;5.196;2023-12-07T04:12:56;101810.00;;;11.60
20733;BMP180;10527;52.124;5.196;2023-12-07T04:15:24;101806.00;;;11.60
20733;BMP180;10527;52.124;5.196;2023-12-07T04:17:52;101807.00;;;11.60
20733;BMP180;10527;52.124;5.196;2023-12-07T04:20:20;101810.00;;;11.60
20733;BMP180;10527;52.124;5.196;2023-12-07T04:22:47;101813.00;;;11.60
20733;BMP180;10527;52.124;5.196;2023-12-07T04:25:15;101813.00;;;11.60
20733;BMP180;10527;52.124;5.196;2023-12-07T04:27:43;101818.00;;;11.60
20733;BMP180;10527;52.124;5.196;2023-12-07T04:30:11;101808.00;;;11.60
20733;BMP180;10527;52.124;5.196;2023-12-07T04:32:38;101800.00;;;11.60
20733;BMP180;10527;52.124;5.196;2023-12-07T04:35:07;101811.00;;;11.60
20733;BMP180;10527;52.124;5.196;2023-12-07T04:37:36;101813.00;;;11.60
20733;BMP180;10527;52.124;5.196;2023-12-07T04:40:03;101807.00;;;11.70
20733;BMP180;10527;52.124;5.196;2023-12-07T04:42:33;101812.00;;;11.60
20733;BMP180;10527;52.124;5.196;2023-12-07T04:45:00;101807.00;;;11.60
20733;BMP180;10527;52.124;5.196;2023-12-07T04:47:28;101813.00;;;11.70
20733;BMP180;10527;52.124;5.196;2023-12-07T04:49:56;101805.00;;;11.70
20733;BMP180;10527;52.124;5.196;2023-12-07T04:52:24;101812.00;;;11.70
20733;BMP180;10527;52.124;5.196;2023-12-07T04:54:52;101814.00;;;11.70
20733;BMP180;10527;52.124;5.196;2023-12-07T04:57:23;101806.00;;;11.70
20733;BMP180;10527;52.124;5.196;2023-12-07T04:59:50;101793.00;;;11.70
20733;BMP180;10527;52.124;5.196;2023-12-07T05:02:18;101799.00;;;11.70
20733;BMP180;10527;52.124;5.196;2023-12-07T05:04:46;101802.00;;;11.70
20733;BMP180;10527;52.124;5.196;2023-12-07T05:07:14;101801.00;;;11.70
20733;BMP180;10527;52.124;5.196;2023-12-07T05:09:42;101796.00;;;11.70
20733;BMP180;10527;52.124;5.196;2023-12-07T05:12:12;101794.00;;;11.70
20733;BMP180;10527;52.124;5.196;2023-12-07T05:14:40;101798.00;;;11.70
20733;BMP180;10527;52.124;5.196;2023-12-07T05:17:07;101802.00;;;11.80
20733;BMP180;10527;52.124;5.196;2023-12-07T05:19:38;101797.00;;;11.80
20733;BMP180;10527;52.124;5.196;2023-12-07T05:22:05;101801.00;;;11.80
20733;BMP180;10527;52.124;5.196;2023-12-07T05:24:34;101802.00;;;11.80
20733;BMP180;10527;52.124;5.196;2023-12-07T05:27:02;101792.00;;;11.80
20733;BMP180;10527;52.124;5.196;2023-12-07T05:29:31;101790.00;;;11.70
20733;BMP180;10527;52.124;5.196;2023-12-07T05:31:58;101787.00;;;11.70
20733;BMP180;10527;52.124;5.196;2023-12-07T05:34:26;101787.00;;;11.70
20733;BMP180;10527;52.124;5.196;2023-12-07T05:36:53;101787.00;;;11.70
20733;BMP180;10527;52.124;5.196;2023-12-07T05:39:20;101784.00;;;11.60
20733;BMP180;10527;52.124;5.196;2023-12-07T05:41:48;101773.00;;;11.60
20733;BMP180;10527;52.124;5.196;2023-12-07T05:44:15;101776.00;;;11.60
20733;BMP180;10527;52.124;5.196;2023-12-07T05:46:50;101776.00;;;11.60
20733;BMP180;10527;52.124;5.196;2023-12-07T05:49:18;101777.00;;;11.60
20733;BMP180;10527;52.124;5.196;2023-12-07T05:51:45;101787.00;;;11.60
20733;BMP180;10527;52.124;5.196;2023-12-07T05:54:13;101788.00;;;11.60
20733;BMP180;10527;52.124;5.196;2023-12-07T05:56:40;101800.00;;;11.60
20733;BMP180;10527;52.124;5.196;2023-12-07T05:59:07;101785.00;;;11.60
20733;BMP180;10527;52.124;5.196;2023-12-07T06:01:36;101786.00;;;11.60
20733;BMP180;10527;52.124;5.196;2023-12-07T06:04:05;101789.00;;;11.50
20733;BMP180;10527;52.124;5.196;2023-12-07T06:06:33;101789.00;;;11.50
20733;BMP180;10527;52.124;5.196;2023-12-07T06:09:01;101800.00;;;11.50
20733;BMP180;10527;52.124;5.196;2023-12-07T06:11:29;101799.00;;;11.50
20733;BMP180;10527;52.124;5.196;2023-12-07T06:13:56;101795.00;;;11.50
20733;BMP180;10527;52.124;5.196;2023-12-07T06:16:26;101803.00;;;11.50
20733;BMP180;10527;52.124;5.196;2023-12-07T06:18:53;101801.00;;;11.50
20733;BMP180;10527;52.124;5.196;2023-12-07T06:21:22;101797.00;;;11.40
20733;BMP180;10527;52.124;5.196;2023-12-07T06:23:50;101812.00;;;11.40
20733;BMP180;10527;52.124;5.196;2023-12-07T06:26:17;101801.00;;;11.40
20733;BMP180;10527;52.124;5.196;2023-12-07T06:28:58;101804.00;;;11.40
20733;BMP180;10527;52.124;5.196;2023-12-07T06:31:26;101801.00;;;11.30
20733;BMP180;10527;52.124;5.196;2023-12-07T06:33:54;101809.00;;;11.30
20733;BMP180;10527;52.124;5.196;2023-12-07T06:36:25;101803.00;;;11.30
20733;BMP180;10527;52.124;5.196;2023-12-07T06:38:54;101790.00;;;11.30
20733;BMP180;10527;52.124;5.196;2023-12-07T06:41:25;101798.00;;;11.30
20733;BMP180;10527;52.124;5.196;2023-12-07T06:43:53;101806.00;;;11.40
20733;BMP180;10527;52.124;5.196;2023-12-07T06:46:23;101807.00;;;11.40
20733;BMP180;10527;52.124;5.196;2023-12-07T06:48:50;101806.00;;;11.30
20733;BMP180;10527;52.124;5.196;2023-12-07T06:51:18;101810.00;;;11.40
20733;BMP180;10527;52.124;5.196;2023-12-07T06:53:45;101803.00;;;11.30
20733;BMP180;10527;52.124;5.196;2023-12-07T06:56:13;101800.00;;;11.30
20733;BMP180;10527;52.124;5.196;2023-12-07T06:58:42;101802.00;;;11.30
20733;BMP180;10527;52.124;5.196;2023-12-07T07:01:11;101793.00;;;11.40
20733;BMP180;10527;52.124;5.196;2023-12-07T07:03:40;101790.00;;;11.30
20733;BMP180;10527;52.124;5.196;2023-12-07T07:06:08;101792.00;;;11.40
20733;BMP180;10527;52.124;5.196;2023-12-07T07:08:36;101792.00;;;11.40
20733;BMP180;10527;52.124;5.196;2023-12-07T07:11:12;101788.00;;;11.40
20733;BMP180;10527;52.124;5.196;2023-12-07T07:13:41;101795.00;;;11.40
20733;BMP180;10527;52.124;5.196;2023-12-07T07:16:09;101799.00;;;11.40
20733;BMP180;10527;52.124;5.196;2023-12-07T07:18:39;101806.00;;;11.40
20733;BMP180;10527;52.124;5.196;2023-12-07T07:21:07;101798.00;;;11.40
20733;BMP180;10527;52.124;5.196;2023-12-07T07:23:35;101795.00;;;11.40
20733;BMP180;10527;52.124;5.196;2023-12-07T07:26:03;101805.00;;;11.40
20733;BMP180;10527;52.124;5.196;2023-12-07T07:28:32;101802.00;;;11.30
20733;BMP180;10527;52.124;5.196;2023-12-07T07:31:00;101812.00;;;11.30
20733;BMP180;10527;52.124;5.196;2023-12-07T07:33:27;101814.00;;;11.40
20733;BMP180;10527;52.124;5.196;2023-12-07T07:35:55;101806.00;;;11.40
20733;BMP180;10527;52.124;5.196;2023-12-07T07:38:25;101802.00;;;11.40
20733;BMP180;10527;52.124;5.196;2023-12-07T07:40:52;101798.00;;;11.40
20733;BMP180;10527;52.124;5.196;2023-12-07T07:43:20;101800.00;;;11.40
20733;BMP180;10527;52.124;5.196;2023-12-07T07:45:48;101805.00;;;11.30
20733;BMP180;10527;52.124;5.196;2023-12-07T07:48:16;101808.00;;;11.30
20733;BMP180;10527;52.124;5.196;2023-12-07T07:50:43;101803.00;;;11.30
20733;BMP180;10527;52.124;5.196;2023-12-07T07:53:12;101805.00;;;11.30
20733;BMP180;10527;52.124;5.196;2023-12-07T07:55:39;101810.00;;;11.30
20733;BMP180;10527;52.124;5.196;2023-12-07T07:58:08;101817.00;;;11.30
20733;BMP180;10527;52.124;5.196;2023-12-07T08:00:35;101816.00;;;11.30
20733;BMP180;10527;52.124;5.196;2023-12-07T08:03:03;101814.00;;;11.30
20733;BMP180;10527;52.124;5.196;2023-12-07T08:05:31;101807.00;;;11.30
20733;BMP180;10527;52.124;5.196;2023-12-07T08:07:58;101804.00;;;11.30
20733;BMP180;10527;52.124;5.196;2023-12-07T08:10:26;101809.00;;;11.30
20733;BMP180;10527;52.124;5.196;2023-12-07T08:12:53;101811.00;;;11.30
20733;BMP180;10527;52.124;5.196;2023-12-07T08:15:21;101814.00;;;11.30
20733;BMP180;10527;52.124;5.196;2023-12-07T08:17:49;101820.00;;;11.30
20733;BMP180;10527;52.124;5.196;2023-12-07T08:20:18;101813.00;;;11.30
20733;BMP180;10527;52.124;5.196;2023-12-07T08:22:45;101802.00;;;11.40
20733;BMP180;10527;52.124;5.196;2023-12-07T08:25:13;101809.00;;;11.30
20733;BMP180;10527;52.124;5.196;2023-12-07T08:27:40;101804.00;;;11.30
20733;BMP180;10527;52.124;5.196;2023-12-07T08:30:08;101808.00;;;11.40
20733;BMP180;10527;52.124;5.196;2023-12-07T08:32:37;101808.00;;;11.40
20733;BMP180;10527;52.124;5.196;2023-12-07T08:35:05;101804.00;;;11.40
20733;BMP180;10527;52.124;5.196;2023-12-07T08:37:33;101808.00;;;11.40
20733;BMP180;10527;52.124;5.196;2023-12-07T08:40:01;101803.00;;;11.40
20733;BMP180;10527;52.124;5.196;2023-12-07T08:42:28;101799.00;;;11.40
20733;BMP180;10527;52.124;5.196;2023-12-07T08:44:58;101798.00;;;11.40
20733;BMP180;10527;52.124;5.196;2023-12-07T08:47:26;101802.00;;;11.40
20733;BMP180;10527;52.124;5.196;2023-12-07T08:49:55;101810.00;;;11.40
20733;BMP180;10527;52.124;5.196;2023-12-07T08:52:22;101806.00;;;11.40
20733;BMP180;10527;52.124;5.196;2023-12-07T08:55:06;101799.00;;;11.50
20733;BMP180;10527;52.124;5.196;2023-12-07T08:57:34;101793.00;;;11.50
20733;BMP180;10527;52.124;5.196;2023-12-07T09:00:01;101786.00;;;11.50
20733;BMP180;10527;52.124;5.196;2023-12-07T09:02:29;101795.00;;;11.40
20733;BMP180;10527;52.124;5.196;2023-12-07T09:05:11;101800.00;;;11.40
20733;BMP180;10527;52.124;5.196;2023-12-07T09:07:39;101794.00;;;11.50
20733;BMP180;10527;52.124;5.196;2023-12-07T09:10:08;101785.00;;;11.50
20733;BMP180;10527;52.124;5.196;2023-12-07T09:12:36;101777.00;;;11.50
20733;BMP180;10527;52.124;5.196;2023-12-07T09:15:07;101790.00;;;11.50
20733;BMP180;10527;52.124;5.196;2023-12-07T09:17:35;101783.00;;;11.50
20733;BMP180;10527;52.124;5.196;2023-12-07T09:20:08;101781.00;;;11.50
20733;BMP180;10527;52.124;5.196;2023-12-07T09:22:46;101794.00;;;11.50
20733;BMP180;10527;52.124;5.196;2023-12-07T09:25:16;101771.00;;;11.40
20733;BMP180;10527;52.124;5.196;2023-12-07T09:27:43;101788.00;;;11.40
20733;BMP180;10527;52.124;5.196;2023-12-07T09:30:11;101799.00;;;11.40
20733;BMP180;10527;52.124;5.196;2023-12-07T09:32:43;101807.00;;;11.50
20733;BMP180;10527;52.124;5.196;2023-12-07T09:35:12;101805.00;;;11.50
20733;BMP180;10527;52.124;5.196;2023-12-07T09:37:43;101797.00;;;11.50
20733;BMP180;10527;52.124;5.196;2023-12-07T09:40:15;101811.00;;;11.50
20733;BMP180;10527;52.124;5.196;2023-12-07T09:42:49;101805.00;;;11.50
20733;BMP180;10527;52.124;5.196;2023-12-07T09:45:17;101798.00;;;11.50
20733;BMP180;10527;52.124;5.196;2023-12-07T09:47:49;101788.00;;;11.60
20733;BMP180;10527;52.124;5.196;2023-12-07T09:50:21;101784.00;;;11.60
20733;BMP180;10527;52.124;5.196;2023-12-07T09:52:50;101772.00;;;11.70
20733;BMP180;10527;52.124;5.196;2023-12-07T09:55:34;101780.00;;;11.70
20733;BMP180;10527;52.124;5.196;2023-12-07T09:58:04;101773.00;;;11.70
20733;BMP180;10527;52.124;5.196;2023-12-07T10:00:34;101781.00;;;11.70
20733;BMP180;10527;52.124;5.196;2023-12-07T10:03:02;101773.00;;;11.70
20733;BMP180;10527;52.124;5.196;2023-12-07T10:05:54;101765.00;;;11.70
20733;BMP180;10527;52.124;5.196;2023-12-07T10:08:30;101766.00;;;11.80
20733;BMP180;10527;52.124;5.196;2023-12-07T10:11:09;101751.00;;;11.80
20733;BMP180;10527;52.124;5.196;2023-12-07T10:13:37;101742.00;;;11.80
20733;BMP180;10527;52.124;5.196;2023-12-07T10:18:34;101750.00;;;11.70
20733;BMP180;10527;52.124;5.196;2023-12-07T10:21:03;101747.00;;;11.70
20733;BMP180;10527;52.124;5.196;2023-12-07T10:23:31;101755.00;;;11.70
20733;BMP180;10527;52.124;5.196;2023-12-07T10:25:59;101742.00;;;11.70
20733;BMP180;10527;52.124;5.196;2023-12-07T10:28:27;101738.00;;;11.70
20733;BMP180;10527;52.124;5.196;2023-12-07T10:30:56;101737.00;;;11.70
20733;BMP180;10527;52.124;5.196;2023-12-07T10:33:25;101722.00;;;11.70
20733;BMP180;10527;52.124;5.196;2023-12-07T10:35:52;101725.00;;;11.70
20733;BMP180;10527;52.124;5.196;2023-12-07T10:38:20;101726.00;;;11.70
20733;BMP180;10527;52.124;5.196;2023-12-07T10:40:49;101719.00;;;11.80
20733;BMP180;10527;52.124;5.196;2023-12-07T10:43:19;101722.00;;;11.80
20733;BMP180;10527;52.124;5.196;2023-12-07T10:45:47;101713.00;;;11.80
20733;BMP180;10527;52.124;5.196;2023-12-07T10:48:15;101712.00;;;11.90
20733;BMP180;10527;52.124;5.196;2023-12-07T10:50:46;101714.00;;;11.90
20733;BMP180;10527;52.124;5.196;2023-12-07T10:53:21;101712.00;;;11.90
20733;BMP180;10527;52.124;5.196;2023-12-07T10:55:56;101709.00;;;11.90
20733;BMP180;10527;52.124;5.196;2023-12-07T10:58:24;101696.00;;;11.90
20733;BMP180;10527;52.124;5.196;2023-12-07T11:00:55;101687.00;;;11.90
20733;BMP180;10527;52.124;5.196;2023-12-07T11:03:28;101688.00;;;12.00
20733;BMP180;10527;52.124;5.196;2023-12-07T11:05:57;101682.00;;;12.00
20733;BMP180;10527;52.124;5.196;2023-12-07T11:08:49;101674.00;;;12.10
20733;BMP180;10527;52.124;5.196;2023-12-07T11:11:27;101677.00;;;12.00
20733;BMP180;10527;52.124;5.196;2023-12-07T11:14:05;101670.00;;;12.10
20733;BMP180;10527;52.124;5.196;2023-12-07T11:16:36;101670.00;;;12.10
20733;BMP180;10527;52.124;5.196;2023-12-07T11:22:05;101666.00;;;12.10
20733;BMP180;10527;52.124;5.196;2023-12-07T11:24:33;101657.00;;;12.10
20733;BMP180;10527;52.124;5.196;2023-12-07T11:27:00;101651.00;;;12.10
20733;BMP180;10527;52.124;5.196;2023-12-07T11:29:32;101644.00;;;12.20
20733;BMP180;10527;52.124;5.196;2023-12-07T11:32:03;101641.00;;;12.20
20733;BMP180;10527;52.124;5.196;2023-12-07T11:34:44;101636.00;;;12.20
20733;BMP180;10527;52.124;5.196;2023-12-07T11:37:15;101640.00;;;12.20
20733;BMP180;10527;52.124;5.196;2023-12-07T11:39:44;101643.00;;;12.20
20733;BMP180;10527;52.124;5.196;2023-12-07T11:42:18;101649.00;;;12.20
20733;BMP180;10527;52.124;5.196;2023-12-07T11:44:50;101650.00;;;12.20
20733;BMP180;10527;52.124;5.196;2023-12-07T11:47:21;101648.00;;;12.20
20733;BMP180;10527;52.124;5.196;2023-12-07T11:49:49;101645.00;;;12.20
20733;BMP180;10527;52.124;5.196;2023-12-07T11:52:20;101633.00;;;12.20
20733;BMP180;10527;52.124;5.196;2023-12-07T11:54:49;101624.00;;;12.20
20733;BMP180;10527;52.124;5.196;2023-12-07T11:57:18;101618.00;;;12.30
20733;BMP180;10527;52.124;5.196;2023-12-07T11:59:46;101620.00;;;12.30
20733;BMP180;10527;52.124;5.196;2023-12-07T12:02:16;101603.00;;;12.30
20733;BMP180;10527;52.124;5.196;2023-12-07T12:04:44;101592.00;;;12.30
20733;BMP180;10527;52.124;5.196;2023-12-07T12:07:11;101581.00;;;12.40
20733;BMP180;10527;52.124;5.196;2023-12-07T12:09:39;101595.00;;;12.40
20733;BMP180;10527;52.124;5.196;2023-12-07T12:12:08;101593.00;;;12.40
20733;BMP180;10527;52.124;5.196;2023-12-07T12:14:36;101594.00;;;12.40
20733;BMP180;10527;52.124;5.196;2023-12-07T12:17:05;101582.00;;;12.40
20733;BMP180;10527;52.124;5.196;2023-12-07T12:19:33;101586.00;;;12.40
20733;BMP180;10527;52.124;5.196;2023-12-07T12:22:04;101589.00;;;12.50
20733;BMP180;10527;52.124;5.196;2023-12-07T12:24:36;101596.00;;;12.50
20733;BMP180;10527;52.124;5.196;2023-12-07T12:27:05;101590.00;;;12.50
20733;BMP180;10527;52.124;5.196;2023-12-07T12:29:33;101576.00;;;12.60
20733;BMP180;10527;52.124;5.196;2023-12-07T12:32:02;101573.00;;;12.60
20733;BMP180;10527;52.124;5.196;2023-12-07T12:34:33;101559.00;;;12.60
20733;BMP180;10527;52.124;5.196;2023-12-07T12:37:02;101555.00;;;12.60
20733;BMP180;10527;52.124;5.196;2023-12-07T12:39:33;101552.00;;;12.60
20733;BMP180;10527;52.124;5.196;2023-12-07T12:42:02;101541.00;;;12.60
20733;BMP180;10527;52.124;5.196;2023-12-07T12:44:32;101526.00;;;12.60
20733;BMP180;10527;52.124;5.196;2023-12-07T12:47:08;101520.00;;;12.70
20733;BMP180;10527;52.124;5.196;2023-12-07T12:49:41;101521.00;;;12.70
20733;BMP180;10527;52.124;5.196;2023-12-07T12:52:15;101510.00;;;12.70
20733;BMP180;10527;52.124;5.196;2023-12-07T12:54:50;101504.00;;;12.70
20733;BMP180;10527;52.124;5.196;2023-12-07T12:57:18;101501.00;;;12.80
20733;BMP180;10527;52.124;5.196;2023-12-07T12:59:46;101486.00;;;12.80
20733;BMP180;10527;52.124;5.196;2023-12-07T13:02:15;101491.00;;;12.80
20733;BMP180;10527;52.124;5.196;2023-12-07T13:04:43;101484.00;;;12.80
20733;BMP180;10527;52.124;5.196;2023-12-07T13:07:15;101471.00;;;12.80
20733;BMP180;10527;52.124;5.196;2023-12-07T13:09:42;101462.00;;;12.80
20733;BMP180;10527;52.124;5.196;2023-12-07T13:12:10;101466.00;;;12.80
20733;BMP180;10527;52.124;5.196;2023-12-07T13:14:38;101471.00;;;12.90
20733;BMP180;10527;52.124;5.196;2023-12-07T13:17:15;101464.00;;;12.90
20733;BMP180;10527;52.124;5.196;2023-12-07T13:19:43;101463.00;;;12.90
20733;BMP180;10527;52.124;5.196;2023-12-07T13:22:11;101465.00;;;13.00
20733;BMP180;10527;52.124;5.196;2023-12-07T13:24:39;101460.00;;;13.00
20733;BMP180;10527;52.124;5.196;2023-12-07T13:27:06;101452.00;;;13.00
20733;BMP180;10527;52.124;5.196;2023-12-07T13:29:34;101445.00;;;13.00
20733;BMP180;10527;52.124;5.196;2023-12-07T13:32:04;101454.00;;;13.00
20733;BMP180;10527;52.124;5.196;2023-12-07T13:34:32;101440.00;;;13.00
20733;BMP180;10527;52.124;5.196;2023-12-07T13:37:00;101433.00;;;13.00
20733;BMP180;10527;52.124;5.196;2023-12-07T13:39:28;101432.00;;;13.00
20733;BMP180;10527;52.124;5.196;2023-12-07T13:41:59;101426.00;;;13.00
20733;BMP180;10527;52.124;5.196;2023-12-07T13:44:31;101432.00;;;13.00
20733;BMP180;10527;52.124;5.196;2023-12-07T13:47:00;101430.00;;;13.10
20733;BMP180;10527;52.124;5.196;2023-12-07T13:49:27;101436.00;;;13.10
20733;BMP180;10527;52.124;5.196;2023-12-07T13:52:04;101433.00;;;13.10
20733;BMP180;10527;52.124;5.196;2023-12-07T13:54:39;101436.00;;;13.10
20733;BMP180;10527;52.124;5.196;2023-12-07T13:57:20;101432.00;;;13.10
20733;BMP180;10527;52.124;5.196;2023-12-07T13:59:49;101424.00;;;13.10
20733;BMP180;10527;52.124;5.196;2023-12-07T14:02:18;101411.00;;;13.10
20733;BMP180;10527;52.124;5.196;2023-12-07T14:04:47;101413.00;;;13.10
20733;BMP180;10527;52.124;5.196;2023-12-07T14:07:19;101399.00;;;13.10
20733;BMP180;10527;52.124;5.196;2023-12-07T14:09:50;101403.00;;;13.10
20733;BMP180;10527;52.124;5.196;2023-12-07T14:12:26;101399.00;;;13.20
20733;BMP180;10527;52.124;5.196;2023-12-07T14:14:56;101391.00;;;13.20